sensor_id;sensor_type;location;lat;lon;timestamp;P1;durP1;ratioP1;P2;durP2;ratioP2
41705;SDS011;27385;51.096;17.190;2023-05-10T00:02:24;12.00;;;2.60;;
41705;SDS011;27385;51.096;17.190;2023-05-10T00:04:55;12.30;;;3.60;;
41705;SDS011;27385;51.096;17.190;2023-05-10T00:07:26;13.10;;;3.20;;
41705;SDS011;27385;51.096;17.190;2023-05-10T00:09:57;12.20;;;3.00;;
41705;SDS011;27385;51.096;17.190;2023-05-10T00:12:28;9.90;;;2.80;;
41705;SDS011;27385;51.096;17.190;2023-05-10T00:14:59;9.20;;;2.60;;
41705;SDS011;27385;51.096;17.190;2023-05-10T00:17:30;9.30;;;2.80;;
41705;SDS011;27385;51.096;17.190;2023-05-10T00:20:01;11.40;;;2.90;;
41705;SDS011;27385;51.096;17.190;2023-05-10T00:22:33;9.10;;;2.10;;
41705;SDS011;27385;51.096;17.190;2023-05-10T00:25:05;8.40;;;2.20;;
41705;SDS011;27385;51.096;17.190;2023-05-10T00:27:38;13.50;;;3.30;;
41705;SDS011;27385;51.096;17.190;2023-05-10T00:30:09;15.80;;;2.90;;
41705;SDS011;27385;51.096;17.190;2023-05-10T00:32:41;14.70;;;3.30;;
41705;SDS011;27385;51.096;17.190;2023-05-10T00:35:12;11.90;;;3.20;;
41705;SDS011;27385;51.096;17.190;2023-05-10T00:37:43;12.60;;;2.90;;
41705;SDS011;27385;51.096;17.190;2023-05-10T00:40:14;12.80;;;3.30;;
41705;SDS011;27385;51.096;17.190;2023-05-10T00:42:46;11.90;;;3.20;;
41705;SDS011;27385;51.096;17.190;2023-05-10T00:45:17;12.70;;;3.10;;
41705;SDS011;27385;51.096;17.190;2023-05-10T00:47:48;10.70;;;2.80;;
41705;SDS011;27385;51.096;17.190;2023-05-10T00:50:20;15.70;;;4.50;;
41705;SDS011;27385;51.096;17.190;2023-05-10T00:52:51;18.80;;;3.30;;
41705;SDS011;27385;51.096;17.190;2023-05-10T00:55:22;16.80;;;3.60;;
41705;SDS011;27385;51.096;17.190;2023-05-10T00:57:54;11.80;;;2.90;;
41705;SDS011;27385;51.096;17.190;2023-05-10T01:00:25;12.50;;;3.60;;
41705;SDS011;27385;51.096;17.190;2023-05-10T01:02:57;12.10;;;3.10;;
41705;SDS011;27385;51.096;17.190;2023-05-10T01:05:29;10.60;;;3.60;;
41705;SDS011;27385;51.096;17.190;2023-05-10T01:08:00;16.40;;;3.80;;
41705;SDS011;27385;51.096;17.190;2023-05-10T01:10:31;15.60;;;3.90;;
41705;SDS011;27385;51.096;17.190;2023-05-10T01:13:02;12.50;;;3.50;;
41705;SDS011;27385;51.096;17.190;2023-05-10T01:15:33;14.20;;;4.20;;
41705;SDS011;27385;51.096;17.190;2023-05-10T01:18:05;15.40;;;3.80;;
41705;SDS011;27385;51.096;17.190;2023-05-10T01:20:39;16.60;;;3.90;;
41705;SDS011;27385;51.096;17.190;2023-05-10T01:26:24;11.10;;;3.10;;
41705;SDS011;27385;51.096;17.190;2023-05-10T01:29:28;13.20;;;3.10;;
41705;SDS011;27385;51.096;17.190;2023-05-10T01:32:22;13.80;;;2.80;;
41705;SDS011;27385;51.096;17.190;2023-05-10T01:35:00;15.50;;;3.70;;
41705;SDS011;27385;51.096;17.190;2023-05-10T01:37:38;9.30;;;2.70;;
41705;SDS011;27385;51.096;17.190;2023-05-10T01:40:17;13.10;;;3.30;;
41705;SDS011;27385;51.096;17.190;2023-05-10T01:42:54;14.20;;;3.40;;
41705;SDS011;27385;51.096;17.190;2023-05-10T01:45:30;14.70;;;2.60;;
41705;SDS011;27385;51.096;17.190;2023-05-10T01:48:08;12.40;;;3.40;;
41705;SDS011;27385;51.096;17.190;2023-05-10T01:50:41;14.70;;;3.70;;
41705;SDS011;27385;51.096;17.190;2023-05-10T01:53:16;13.70;;;3.50;;
41705;SDS011;27385;51.096;17.190;2023-05-10T01:55:50;13.70;;;3.50;;
41705;SDS011;27385;51.096;17.190;2023-05-10T01:58:25;13.80;;;3.60;;
41705;SDS011;27385;51.096;17.190;2023-05-10T02:00:59;13.20;;;3.50;;
41705;SDS011;27385;51.096;17.190;2023-05-10T02:03:32;13.70;;;3.40;;
41705;SDS011;27385;51.096;17.190;2023-05-10T02:06:07;14.00;;;3.10;;
41705;SDS011;27385;51.096;17.190;2023-05-10T02:08:40;11.40;;;3.30;;
41705;SDS011;27385;51.096;17.190;2023-05-10T02:11:13;11.80;;;2.90;;
41705;SDS011;27385;51.096;17.190;2023-05-10T02:13:46;12.80;;;3.70;;
41705;SDS011;27385;51.096;17.190;2023-05-10T02:16:18;11.00;;;3.40;;
41705;SDS011;27385;51.096;17.190;2023-05-10T02:18:53;15.60;;;3.00;;
41705;SDS011;27385;51.096;17.190;2023-05-10T02:21:27;18.30;;;3.40;;
41705;SDS011;27385;51.096;17.190;2023-05-10T02:24:00;12.70;;;3.00;;
41705;SDS011;27385;51.096;17.190;2023-05-10T02:26:33;11.00;;;3.30;;
41705;SDS011;27385;51.096;17.190;2023-05-10T02:29:07;10.70;;;2.80;;
41705;SDS011;27385;51.096;17.190;2023-05-10T02:31:40;11.20;;;2.80;;
41705;SDS011;27385;51.096;17.190;2023-05-10T02:34:12;17.40;;;3.30;;
41705;SDS011;27385;51.096;17.190;2023-05-10T02:36:44;11.60;;;2.50;;
41705;SDS011;27385;51.096;17.190;2023-05-10T02:39:15;16.30;;;4.40;;
41705;SDS011;27385;51.096;17.190;2023-05-10T02:41:47;15.30;;;3.20;;
41705;SDS011;27385;51.096;17.190;2023-05-10T02:44:19;14.00;;;4.00;;
41705;SDS011;27385;51.096;17.190;2023-05-10T02:46:51;11.50;;;3.00;;
41705;SDS011;27385;51.096;17.190;2023-05-10T02:49:23;14.50;;;3.40;;
41705;SDS011;27385;51.096;17.190;2023-05-10T02:51:55;13.20;;;3.40;;
41705;SDS011;27385;51.096;17.190;2023-05-10T02:54:31;13.70;;;3.60;;
41705;SDS011;27385;51.096;17.190;2023-05-10T02:57:17;18.50;;;4.00;;
41705;SDS011;27385;51.096;17.190;2023-05-10T02:59:55;14.70;;;3.80;;
41705;SDS011;27385;51.096;17.190;2023-05-10T03:02:28;11.80;;;2.80;;
41705;SDS011;27385;51.096;17.190;2023-05-10T03:04:59;17.20;;;3.80;;
41705;SDS011;27385;51.096;17.190;2023-05-10T03:07:30;17.10;;;3.70;;
41705;SDS011;27385;51.096;17.190;2023-05-10T03:10:03;12.70;;;3.00;;
41705;SDS011;27385;51.096;17.190;2023-05-10T03:12:41;12.40;;;3.20;;
41705;SDS011;27385;51.096;17.190;2023-05-10T03:15:22;13.20;;;4.30;;
41705;SDS011;27385;51.096;17.190;2023-05-10T03:18:03;14.00;;;3.20;;
41705;SDS011;27385;51.096;17.190;2023-05-10T03:20:38;19.00;;;4.10;;
41705;SDS011;27385;51.096;17.190;2023-05-10T03:23:15;18.00;;;3.30;;
41705;SDS011;27385;51.096;17.190;2023-05-10T03:25:55;13.60;;;2.90;;
41705;SDS011;27385;51.096;17.190;2023-05-10T03:28:28;12.30;;;4.00;;
41705;SDS011;27385;51.096;17.190;2023-05-10T03:31:00;15.70;;;3.70;;
41705;SDS011;27385;51.096;17.190;2023-05-10T03:33:33;12.60;;;3.40;;
41705;SDS011;27385;51.096;17.190;2023-05-10T03:36:05;15.30;;;4.00;;
41705;SDS011;27385;51.096;17.190;2023-05-10T03:38:36;10.70;;;3.00;;
41705;SDS011;27385;51.096;17.190;2023-05-10T03:41:07;16.30;;;3.70;;
41705;SDS011;27385;51.096;17.190;2023-05-10T03:43:38;13.40;;;3.20;;
41705;SDS011;27385;51.096;17.190;2023-05-10T03:46:08;14.70;;;3.80;;
41705;SDS011;27385;51.096;17.190;2023-05-10T03:48:39;14.00;;;3.80;;
41705;SDS011;27385;51.096;17.190;2023-05-10T03:51:10;13.80;;;3.60;;
41705;SDS011;27385;51.096;17.190;2023-05-10T03:53:41;14.40;;;3.40;;
41705;SDS011;27385;51.096;17.190;2023-05-10T03:56:12;10.80;;;2.80;;
41705;SDS011;27385;51.096;17.190;2023-05-10T03:58:43;11.70;;;3.20;;
41705;SDS011;27385;51.096;17.190;2023-05-10T04:01:14;15.00;;;3.00;;
41705;SDS011;27385;51.096;17.190;2023-05-10T04:03:44;14.40;;;2.80;;
41705;SDS011;27385;51.096;17.190;2023-05-10T04:06:15;14.00;;;3.50;;
41705;SDS011;27385;51.096;17.190;2023-05-10T04:08:46;16.40;;;3.10;;
41705;SDS011;27385;51.096;17.190;2023-05-10T04:11:17;15.30;;;3.80;;
41705;SDS011;27385;51.096;17.190;2023-05-10T04:13:49;14.00;;;3.10;;
41705;SDS011;27385;51.096;17.190;2023-05-10T04:16:20;13.40;;;3.50;;
41705;SDS011;27385;51.096;17.190;2023-05-10T04:18:51;12.40;;;4.00;;
41705;SDS011;27385;51.096;17.190;2023-05-10T04:21:22;10.50;;;2.60;;
41705;SDS011;27385;51.096;17.190;2023-05-10T04:23:53;14.40;;;3.40;;
41705;SDS011;27385;51.096;17.190;2023-05-10T04:26:24;16.20;;;4.00;;
41705;SDS011;27385;51.096;17.190;2023-05-10T04:28:55;14.60;;;3.20;;
41705;SDS011;27385;51.096;17.190;2023-05-10T04:31:26;16.30;;;3.50;;
41705;SDS011;27385;51.096;17.190;2023-05-10T04:33:57;11.40;;;2.80;;
41705;SDS011;27385;51.096;17.190;2023-05-10T04:36:28;16.40;;;3.30;;
41705;SDS011;27385;51.096;17.190;2023-05-10T04:39:00;13.30;;;4.20;;
41705;SDS011;27385;51.096;17.190;2023-05-10T04:41:31;12.90;;;3.10;;
41705;SDS011;27385;51.096;17.190;2023-05-10T04:44:03;15.20;;;3.50;;
41705;SDS011;27385;51.096;17.190;2023-05-10T04:46:34;10.40;;;2.90;;
41705;SDS011;27385;51.096;17.190;2023-05-10T04:49:05;11.50;;;2.80;;
41705;SDS011;27385;51.096;17.190;2023-05-10T04:51:36;12.50;;;3.50;;
41705;SDS011;27385;51.096;17.190;2023-05-10T04:54:07;12.30;;;3.00;;
41705;SDS011;27385;51.096;17.190;2023-05-10T04:56:38;10.50;;;3.00;;
41705;SDS011;27385;51.096;17.190;2023-05-10T04:59:09;13.90;;;3.30;;
41705;SDS011;27385;51.096;17.190;2023-05-10T05:01:40;12.20;;;3.30;;
41705;SDS011;27385;51.096;17.190;2023-05-10T05:04:11;13.70;;;3.70;;
41705;SDS011;27385;51.096;17.190;2023-05-10T05:06:42;15.00;;;2.60;;
41705;SDS011;27385;51.096;17.190;2023-05-10T05:09:12;12.80;;;3.00;;
41705;SDS011;27385;51.096;17.190;2023-05-10T05:11:44;11.40;;;2.90;;
41705;SDS011;27385;51.096;17.190;2023-05-10T05:14:15;12.40;;;3.40;;
41705;SDS011;27385;51.096;17.190;2023-05-10T05:16:45;12.10;;;3.40;;
41705;SDS011;27385;51.096;17.190;2023-05-10T05:19:17;10.60;;;2.70;;
41705;SDS011;27385;51.096;17.190;2023-05-10T05:21:48;12.20;;;3.50;;
41705;SDS011;27385;51.096;17.190;2023-05-10T05:24:19;12.40;;;2.90;;
41705;SDS011;27385;51.096;17.190;2023-05-10T05:26:49;10.50;;;3.00;;
41705;SDS011;27385;51.096;17.190;2023-05-10T05:29:21;10.40;;;2.30;;
41705;SDS011;27385;51.096;17.190;2023-05-10T05:31:51;14.10;;;3.80;;
41705;SDS011;27385;51.096;17.190;2023-05-10T05:34:22;12.80;;;2.80;;
41705;SDS011;27385;51.096;17.190;2023-05-10T05:36:54;12.60;;;2.90;;
41705;SDS011;27385;51.096;17.190;2023-05-10T05:39:24;14.60;;;3.60;;
41705;SDS011;27385;51.096;17.190;2023-05-10T05:41:55;11.30;;;3.10;;
41705;SDS011;27385;51.096;17.190;2023-05-10T05:44:27;12.00;;;3.40;;
41705;SDS011;27385;51.096;17.190;2023-05-10T05:46:58;11.80;;;2.60;;
41705;SDS011;27385;51.096;17.190;2023-05-10T05:49:29;12.60;;;3.10;;
41705;SDS011;27385;51.096;17.190;2023-05-10T05:52:00;13.40;;;3.70;;
41705;SDS011;27385;51.096;17.190;2023-05-10T05:54:32;13.90;;;2.80;;
41705;SDS011;27385;51.096;17.190;2023-05-10T05:57:03;13.20;;;3.30;;
41705;SDS011;27385;51.096;17.190;2023-05-10T05:59:33;11.70;;;2.50;;
41705;SDS011;27385;51.096;17.190;2023-05-10T06:02:09;10.80;;;2.20;;
41705;SDS011;27385;51.096;17.190;2023-05-10T06:04:40;13.00;;;3.30;;
41705;SDS011;27385;51.096;17.190;2023-05-10T06:07:11;13.80;;;3.20;;
41705;SDS011;27385;51.096;17.190;2023-05-10T06:09:42;11.60;;;3.10;;
41705;SDS011;27385;51.096;17.190;2023-05-10T06:12:12;14.70;;;2.80;;
41705;SDS011;27385;51.096;17.190;2023-05-10T06:14:44;13.60;;;2.60;;
41705;SDS011;27385;51.096;17.190;2023-05-10T06:17:15;8.70;;;2.30;;
41705;SDS011;27385;51.096;17.190;2023-05-10T06:19:46;17.10;;;3.50;;
41705;SDS011;27385;51.096;17.190;2023-05-10T06:22:17;14.90;;;4.20;;
41705;SDS011;27385;51.096;17.190;2023-05-10T06:24:49;11.30;;;2.20;;
41705;SDS011;27385;51.096;17.190;2023-05-10T06:27:20;13.50;;;2.90;;
41705;SDS011;27385;51.096;17.190;2023-05-10T06:29:52;11.90;;;2.30;;
41705;SDS011;27385;51.096;17.190;2023-05-10T06:32:23;9.30;;;2.60;;
41705;SDS011;27385;51.096;17.190;2023-05-10T06:34:54;8.90;;;2.20;;
41705;SDS011;27385;51.096;17.190;2023-05-10T06:37:25;7.90;;;1.80;;
41705;SDS011;27385;51.096;17.190;2023-05-10T06:39:56;9.90;;;2.10;;
41705;SDS011;27385;51.096;17.190;2023-05-10T06:42:27;14.10;;;2.60;;
41705;SDS011;27385;51.096;17.190;2023-05-10T06:44:58;12.40;;;2.60;;
41705;SDS011;27385;51.096;17.190;2023-05-10T06:47:29;9.00;;;2.60;;
41705;SDS011;27385;51.096;17.190;2023-05-10T06:50:00;9.40;;;2.70;;
41705;SDS011;27385;51.096;17.190;2023-05-10T06:52:31;12.80;;;3.10;;
41705;SDS011;27385;51.096;17.190;2023-05-10T06:55:02;11.50;;;2.40;;
41705;SDS011;27385;51.096;17.190;2023-05-10T06:57:34;11.20;;;1.90;;
41705;SDS011;27385;51.096;17.190;2023-05-10T07:00:06;12.10;;;2.20;;
41705;SDS011;27385;51.096;17.190;2023-05-10T07:02:38;11.00;;;2.20;;
41705;SDS011;27385;51.096;17.190;2023-05-10T07:05:09;11.60;;;2.80;;
41705;SDS011;27385;51.096;17.190;2023-05-10T07:07:40;7.70;;;2.00;;
41705;SDS011;27385;51.096;17.190;2023-05-10T07:10:11;8.90;;;1.90;;
41705;SDS011;27385;51.096;17.190;2023-05-10T07:12:42;10.60;;;2.10;;
41705;SDS011;27385;51.096;17.190;2023-05-10T07:15:13;6.20;;;1.60;;
41705;SDS011;27385;51.096;17.190;2023-05-10T07:17:44;9.50;;;2.20;;
41705;SDS011;27385;51.096;17.190;2023-05-10T07:20:15;7.40;;;1.70;;
41705;SDS011;27385;51.096;17.190;2023-05-10T07:22:46;7.20;;;1.80;;
41705;SDS011;27385;51.096;17.190;2023-05-10T07:25:17;9.20;;;1.90;;
41705;SDS011;27385;51.096;17.190;2023-05-10T07:27:48;10.80;;;1.60;;
41705;SDS011;27385;51.096;17.190;2023-05-10T07:30:19;8.30;;;1.70;;
41705;SDS011;27385;51.096;17.190;2023-05-10T07:32:50;7.80;;;1.60;;
41705;SDS011;27385;51.096;17.190;2023-05-10T07:35:21;8.10;;;1.60;;
41705;SDS011;27385;51.096;17.190;2023-05-10T07:37:52;8.30;;;1.90;;
41705;SDS011;27385;51.096;17.190;2023-05-10T07:40:24;6.50;;;1.70;;
41705;SDS011;27385;51.096;17.190;2023-05-10T07:42:56;8.80;;;1.60;;
41705;SDS011;27385;51.096;17.190;2023-05-10T07:45:27;10.10;;;1.80;;
41705;SDS011;27385;51.096;17.190;2023-05-10T07:47:58;7.90;;;1.80;;
41705;SDS011;27385;51.096;17.190;2023-05-10T07:50:29;10.10;;;2.10;;
41705;SDS011;27385;51.096;17.190;2023-05-10T07:53:00;8.00;;;1.70;;
41705;SDS011;27385;51.096;17.190;2023-05-10T07:55:31;7.80;;;2.30;;
41705;SDS011;27385;51.096;17.190;2023-05-10T07:58:03;10.00;;;1.90;;
41705;SDS011;27385;51.096;17.190;2023-05-10T08:00:34;9.40;;;1.90;;
41705;SDS011;27385;51.096;17.190;2023-05-10T08:03:07;9.80;;;2.20;;
41705;SDS011;27385;51.096;17.190;2023-05-10T08:05:38;7.70;;;1.90;;
41705;SDS011;27385;51.096;17.190;2023-05-10T08:08:09;6.60;;;1.50;;
41705;SDS011;27385;51.096;17.190;2023-05-10T08:10:39;10.40;;;2.10;;
41705;SDS011;27385;51.096;17.190;2023-05-10T08:13:10;9.50;;;2.00;;
41705;SDS011;27385;51.096;17.190;2023-05-10T08:15:41;9.60;;;1.90;;
41705;SDS011;27385;51.096;17.190;2023-05-10T08:18:12;11.00;;;2.00;;
41705;SDS011;27385;51.096;17.190;2023-05-10T08:20:44;11.30;;;2.00;;
41705;SDS011;27385;51.096;17.190;2023-05-10T08:23:15;24.60;;;5.80;;
41705;SDS011;27385;51.096;17.190;2023-05-10T08:25:46;8.40;;;1.70;;
41705;SDS011;27385;51.096;17.190;2023-05-10T08:28:17;8.90;;;1.90;;
41705;SDS011;27385;51.096;17.190;2023-05-10T08:30:49;6.10;;;1.70;;
41705;SDS011;27385;51.096;17.190;2023-05-10T08:33:20;9.10;;;2.10;;
41705;SDS011;27385;51.096;17.190;2023-05-10T08:35:51;8.30;;;1.70;;
41705;SDS011;27385;51.096;17.190;2023-05-10T08:38:22;6.70;;;1.40;;
41705;SDS011;27385;51.096;17.190;2023-05-10T08:40:53;12.60;;;1.60;;
41705;SDS011;27385;51.096;17.190;2023-05-10T08:43:27;7.10;;;1.30;;
41705;SDS011;27385;51.096;17.190;2023-05-10T08:45:59;7.10;;;1.40;;
41705;SDS011;27385;51.096;17.190;2023-05-10T08:48:32;7.10;;;1.40;;
41705;SDS011;27385;51.096;17.190;2023-05-10T08:51:04;7.00;;;1.40;;
41705;SDS011;27385;51.096;17.190;2023-05-10T08:53:37;6.60;;;1.30;;
41705;SDS011;27385;51.096;17.190;2023-05-10T08:56:08;6.90;;;1.30;;
41705;SDS011;27385;51.096;17.190;2023-05-10T08:58:39;8.00;;;1.50;;
41705;SDS011;27385;51.096;17.190;2023-05-10T09:01:10;6.50;;;1.00;;
41705;SDS011;27385;51.096;17.190;2023-05-10T09:03:42;6.10;;;1.40;;
41705;SDS011;27385;51.096;17.190;2023-05-10T09:06:14;6.70;;;1.20;;
41705;SDS011;27385;51.096;17.190;2023-05-10T09:08:45;5.60;;;1.30;;
41705;SDS011;27385;51.096;17.190;2023-05-10T09:11:17;6.10;;;1.10;;
41705;SDS011;27385;51.096;17.190;2023-05-10T09:13:48;6.40;;;1.80;;
41705;SDS011;27385;51.096;17.190;2023-05-10T09:16:21;7.30;;;1.30;;
41705;SDS011;27385;51.096;17.190;2023-05-10T09:18:52;6.70;;;1.40;;
41705;SDS011;27385;51.096;17.190;2023-05-10T09:21:23;4.10;;;1.20;;
41705;SDS011;27385;51.096;17.190;2023-05-10T09:23:53;4.80;;;1.10;;
41705;SDS011;27385;51.096;17.190;2023-05-10T09:26:24;6.80;;;1.40;;
41705;SDS011;27385;51.096;17.190;2023-05-10T09:28:56;6.20;;;1.50;;
41705;SDS011;27385;51.096;17.190;2023-05-10T09:34:18;7.90;;;1.60;;
41705;SDS011;27385;51.096;17.190;2023-05-10T09:36:57;8.20;;;1.80;;
41705;SDS011;27385;51.096;17.190;2023-05-10T09:39:32;7.70;;;1.50;;
41705;SDS011;27385;51.096;17.190;2023-05-10T09:42:07;11.20;;;1.90;;
41705;SDS011;27385;51.096;17.190;2023-05-10T09:44:51;6.10;;;1.30;;
41705;SDS011;27385;51.096;17.190;2023-05-10T09:47:22;7.00;;;1.50;;
41705;SDS011;27385;51.096;17.190;2023-05-10T09:49:54;7.50;;;1.20;;
41705;SDS011;27385;51.096;17.190;2023-05-10T09:52:31;9.60;;;1.60;;
41705;SDS011;27385;51.096;17.190;2023-05-10T09:55:17;7.50;;;1.70;;
41705;SDS011;27385;51.096;17.190;2023-05-10T09:57:49;6.40;;;1.60;;
41705;SDS011;27385;51.096;17.190;2023-05-10T10:03:03;6.30;;;1.40;;
41705;SDS011;27385;51.096;17.190;2023-05-10T10:05:35;11.70;;;1.80;;
41705;SDS011;27385;51.096;17.190;2023-05-10T10:08:09;4.00;;;1.30;;
41705;SDS011;27385;51.096;17.190;2023-05-10T10:10:41;5.80;;;1.40;;
41705;SDS011;27385;51.096;17.190;2023-05-10T10:13:14;6.70;;;1.20;;
41705;SDS011;27385;51.096;17.190;2023-05-10T10:15:45;6.10;;;1.10;;
41705;SDS011;27385;51.096;17.190;2023-05-10T10:18:18;6.70;;;1.40;;
41705;SDS011;27385;51.096;17.190;2023-05-10T10:20:55;8.80;;;1.50;;
41705;SDS011;27385;51.096;17.190;2023-05-10T10:23:27;8.10;;;1.20;;
41705;SDS011;27385;51.096;17.190;2023-05-10T10:25:58;9.10;;;1.40;;
41705;SDS011;27385;51.096;17.190;2023-05-10T10:28:32;5.70;;;1.30;;
41705;SDS011;27385;51.096;17.190;2023-05-10T10:31:13;10.80;;;1.10;;
41705;SDS011;27385;51.096;17.190;2023-05-10T10:33:55;15.50;;;1.40;;
41705;SDS011;27385;51.096;17.190;2023-05-10T10:36:29;11.50;;;1.40;;
41705;SDS011;27385;51.096;17.190;2023-05-10T10:39:01;3.60;;;1.10;;
41705;SDS011;27385;51.096;17.190;2023-05-10T10:41:38;5.00;;;1.00;;
41705;SDS011;27385;51.096;17.190;2023-05-10T10:47:00;3.90;;;1.10;;
41705;SDS011;27385;51.096;17.190;2023-05-10T10:49:34;6.50;;;1.00;;
41705;SDS011;27385;51.096;17.190;2023-05-10T10:52:15;7.40;;;1.20;;
41705;SDS011;27385;51.096;17.190;2023-05-10T10:54:53;7.90;;;1.20;;
41705;SDS011;27385;51.096;17.190;2023-05-10T10:57:30;12.10;;;1.30;;
41705;SDS011;27385;51.096;17.190;2023-05-10T11:02:53;5.10;;;1.40;;
41705;SDS011;27385;51.096;17.190;2023-05-10T11:08:12;8.00;;;1.30;;
41705;SDS011;27385;51.096;17.190;2023-05-10T11:10:51;6.60;;;1.40;;
41705;SDS011;27385;51.096;17.190;2023-05-10T11:13:31;8.50;;;1.50;;
41705;SDS011;27385;51.096;17.190;2023-05-10T11:16:13;5.90;;;1.20;;
41705;SDS011;27385;51.096;17.190;2023-05-10T11:18:56;5.70;;;1.00;;
41705;SDS011;27385;51.096;17.190;2023-05-10T11:21:30;10.50;;;1.30;;
41705;SDS011;27385;51.096;17.190;2023-05-10T11:24:03;4.70;;;1.00;;
41705;SDS011;27385;51.096;17.190;2023-05-10T11:26:44;14.40;;;1.60;;
41705;SDS011;27385;51.096;17.190;2023-05-10T11:29:15;3.60;;;0.90;;
41705;SDS011;27385;51.096;17.190;2023-05-10T11:31:46;8.10;;;1.10;;
41705;SDS011;27385;51.096;17.190;2023-05-10T11:34:24;10.10;;;1.10;;
41705;SDS011;27385;51.096;17.190;2023-05-10T11:36:57;5.20;;;0.90;;
41705;SDS011;27385;51.096;17.190;2023-05-10T11:39:28;4.00;;;0.80;;
41705;SDS011;27385;51.096;17.190;2023-05-10T11:42:01;5.90;;;0.80;;
41705;SDS011;27385;51.096;17.190;2023-05-10T11:44:32;8.80;;;1.10;;
41705;SDS011;27385;51.096;17.190;2023-05-10T11:47:03;13.00;;;1.10;;
41705;SDS011;27385;51.096;17.190;2023-05-10T11:49:35;6.40;;;0.80;;
41705;SDS011;27385;51.096;17.190;2023-05-10T11:52:06;12.10;;;1.20;;
41705;SDS011;27385;51.096;17.190;2023-05-10T11:54:42;12.10;;;1.30;;
41705;SDS011;27385;51.096;17.190;2023-05-10T11:57:19;6.00;;;0.90;;
41705;SDS011;27385;51.096;17.190;2023-05-10T11:59:55;4.30;;;0.80;;
41705;SDS011;27385;51.096;17.190;2023-05-10T12:02:26;4.70;;;0.80;;
41705;SDS011;27385;51.096;17.190;2023-05-10T12:04:58;3.70;;;0.90;;
41705;SDS011;27385;51.096;17.190;2023-05-10T12:07:29;8.70;;;1.20;;
41705;SDS011;27385;51.096;17.190;2023-05-10T12:10:04;3.20;;;0.80;;
41705;SDS011;27385;51.096;17.190;2023-05-10T12:12:40;6.90;;;1.90;;
41705;SDS011;27385;51.096;17.190;2023-05-10T12:15:16;6.90;;;1.00;;
41705;SDS011;27385;51.096;17.190;2023-05-10T12:17:48;6.30;;;1.70;;
41705;SDS011;27385;51.096;17.190;2023-05-10T12:20:20;8.80;;;0.90;;
41705;SDS011;27385;51.096;17.190;2023-05-10T12:22:53;3.10;;;0.90;;
41705;SDS011;27385;51.096;17.190;2023-05-10T12:25:29;2.40;;;0.70;;
41705;SDS011;27385;51.096;17.190;2023-05-10T12:28:02;6.40;;;0.90;;
41705;SDS011;27385;51.096;17.190;2023-05-10T12:30:35;3.00;;;0.70;;
41705;SDS011;27385;51.096;17.190;2023-05-10T12:33:10;3.20;;;0.80;;
41705;SDS011;27385;51.096;17.190;2023-05-10T12:35:45;5.90;;;0.90;;
41705;SDS011;27385;51.096;17.190;2023-05-10T12:38:25;4.10;;;0.80;;
41705;SDS011;27385;51.096;17.190;2023-05-10T12:40:59;5.30;;;0.80;;
41705;SDS011;27385;51.096;17.190;2023-05-10T12:43:31;4.30;;;0.80;;
41705;SDS011;27385;51.096;17.190;2023-05-10T12:46:06;3.10;;;0.70;;
41705;SDS011;27385;51.096;17.190;2023-05-10T12:48:38;3.60;;;0.70;;
41705;SDS011;27385;51.096;17.190;2023-05-10T12:51:10;2.60;;;0.90;;
41705;SDS011;27385;51.096;17.190;2023-05-10T12:53:43;8.10;;;0.80;;
41705;SDS011;27385;51.096;17.190;2023-05-10T12:56:15;8.00;;;0.90;;
41705;SDS011;27385;51.096;17.190;2023-05-10T12:58:46;3.80;;;0.80;;
41705;SDS011;27385;51.096;17.190;2023-05-10T13:01:18;5.70;;;0.80;;
41705;SDS011;27385;51.096;17.190;2023-05-10T13:03:49;2.80;;;0.70;;
41705;SDS011;27385;51.096;17.190;2023-05-10T13:06:20;5.40;;;0.90;;
41705;SDS011;27385;51.096;17.190;2023-05-10T13:08:51;4.50;;;1.00;;
41705;SDS011;27385;51.096;17.190;2023-05-10T13:11:22;4.10;;;0.60;;
41705;SDS011;27385;51.096;17.190;2023-05-10T13:13:53;6.00;;;0.70;;
41705;SDS011;27385;51.096;17.190;2023-05-10T13:16:24;3.30;;;0.70;;
41705;SDS011;27385;51.096;17.190;2023-05-10T13:18:55;4.60;;;0.90;;
41705;SDS011;27385;51.096;17.190;2023-05-10T13:21:26;5.60;;;1.10;;
41705;SDS011;27385;51.096;17.190;2023-05-10T13:23:58;4.10;;;0.80;;
41705;SDS011;27385;51.096;17.190;2023-05-10T13:26:29;4.20;;;0.70;;
41705;SDS011;27385;51.096;17.190;2023-05-10T13:29:00;4.10;;;0.60;;
41705;SDS011;27385;51.096;17.190;2023-05-10T13:31:31;10.90;;;1.70;;
41705;SDS011;27385;51.096;17.190;2023-05-10T13:34:03;5.10;;;0.80;;
41705;SDS011;27385;51.096;17.190;2023-05-10T13:36:34;2.50;;;0.70;;
41705;SDS011;27385;51.096;17.190;2023-05-10T13:39:05;2.70;;;0.60;;
41705;SDS011;27385;51.096;17.190;2023-05-10T13:41:36;3.70;;;0.90;;
41705;SDS011;27385;51.096;17.190;2023-05-10T13:44:07;2.40;;;0.70;;
41705;SDS011;27385;51.096;17.190;2023-05-10T13:46:41;3.30;;;0.70;;
41705;SDS011;27385;51.096;17.190;2023-05-10T13:49:12;2.10;;;0.60;;
41705;SDS011;27385;51.096;17.190;2023-05-10T13:51:43;3.20;;;0.70;;
41705;SDS011;27385;51.096;17.190;2023-05-10T13:54:14;4.50;;;0.60;;
41705;SDS011;27385;51.096;17.190;2023-05-10T14:00:11;2.90;;;0.50;;
41705;SDS011;27385;51.096;17.190;2023-05-10T14:02:42;2.90;;;0.80;;
41705;SDS011;27385;51.096;17.190;2023-05-10T14:05:14;4.70;;;0.60;;
41705;SDS011;27385;51.096;17.190;2023-05-10T14:07:45;5.40;;;0.50;;
41705;SDS011;27385;51.096;17.190;2023-05-10T14:10:16;4.00;;;0.80;;
41705;SDS011;27385;51.096;17.190;2023-05-10T14:12:47;4.20;;;0.70;;
41705;SDS011;27385;51.096;17.190;2023-05-10T14:15:19;3.20;;;0.70;;
41705;SDS011;27385;51.096;17.190;2023-05-10T14:17:50;4.70;;;0.50;;
41705;SDS011;27385;51.096;17.190;2023-05-10T14:20:21;5.90;;;0.90;;
41705;SDS011;27385;51.096;17.190;2023-05-10T14:22:52;5.30;;;0.70;;
41705;SDS011;27385;51.096;17.190;2023-05-10T14:25:24;2.20;;;0.60;;
41705;SDS011;27385;51.096;17.190;2023-05-10T14:27:55;2.20;;;0.60;;
41705;SDS011;27385;51.096;17.190;2023-05-10T14:30:27;4.20;;;0.50;;
41705;SDS011;27385;51.096;17.190;2023-05-10T14:32:58;5.70;;;0.70;;
41705;SDS011;27385;51.096;17.190;2023-05-10T14:35:29;3.00;;;0.50;;
41705;SDS011;27385;51.096;17.190;2023-05-10T14:38:01;3.40;;;0.70;;
41705;SDS011;27385;51.096;17.190;2023-05-10T14:40:32;2.80;;;0.70;;
41705;SDS011;27385;51.096;17.190;2023-05-10T14:43:03;5.60;;;0.80;;
41705;SDS011;27385;51.096;17.190;2023-05-10T14:45:34;8.60;;;0.70;;
41705;SDS011;27385;51.096;17.190;2023-05-10T14:48:05;5.00;;;0.80;;
41705;SDS011;27385;51.096;17.190;2023-05-10T14:50:40;6.70;;;1.10;;
41705;SDS011;27385;51.096;17.190;2023-05-10T14:56:15;5.30;;;0.70;;
41705;SDS011;27385;51.096;17.190;2023-05-10T14:58:47;6.50;;;0.80;;
41705;SDS011;27385;51.096;17.190;2023-05-10T15:01:18;6.30;;;0.80;;
41705;SDS011;27385;51.096;17.190;2023-05-10T15:03:49;4.40;;;0.70;;
41705;SDS011;27385;51.096;17.190;2023-05-10T15:06:29;2.70;;;0.80;;
41705;SDS011;27385;51.096;17.190;2023-05-10T15:09:02;3.00;;;0.60;;
41705;SDS011;27385;51.096;17.190;2023-05-10T15:11:34;6.40;;;0.90;;
41705;SDS011;27385;51.096;17.190;2023-05-10T15:14:05;2.30;;;0.70;;
41705;SDS011;27385;51.096;17.190;2023-05-10T15:16:36;4.60;;;0.80;;
41705;SDS011;27385;51.096;17.190;2023-05-10T15:19:07;2.60;;;0.50;;
41705;SDS011;27385;51.096;17.190;2023-05-10T15:21:38;4.20;;;0.70;;
41705;SDS011;27385;51.096;17.190;2023-05-10T15:24:12;2.50;;;0.80;;